GSICA EGPB-EGPB

Flight info

Callsign GSICA
Flight time 0h 16m
Altitude 4000
Route EGEF
Aircraft BN2P/L-SFG/C

Departure

Time 2026-05-06 22:46
Airport Sumburgh Airport (EGPB)

Arrival

Time 2026-05-06 23:02
Airport Sumburgh Airport (EGPB)
Time Latitude Longitude Altitude Speed Heading
2026-05-06 22:40 59.53402 -1.62882 215 ft 0 kts 229°
2026-05-06 22:44 59.53406 -1.62921 219 ft 7 kts 287°
2026-05-06 22:44 59.53387 -1.63043 226 ft 13 kts 243°
2026-05-06 22:44 59.53354 -1.63173 222 ft 15 kts 243°
2026-05-06 22:45 59.53393 -1.63184 217 ft 24 kts 59°
2026-05-06 22:45 59.53585 -1.62484 222 ft 85 kts 63°
2026-05-06 22:45 59.53915 -1.61183 286 ft 117 kts 65°
2026-05-06 22:45 59.54225 -1.59557 555 ft 123 kts 72°
2026-05-06 22:46 59.54868 -1.58383 756 ft 129 kts
2026-05-06 22:46 59.55503 -1.58366 909 ft 131 kts 354°
2026-05-06 22:46 59.56489 -1.58337 1136 ft 137 kts 358°
2026-05-06 22:46 59.57466 -1.58297 1334 ft 141 kts
2026-05-06 22:47 59.58434 -1.57657 1497 ft 149 kts 19°
2026-05-06 22:47 59.59450 -1.56894 1518 ft 158 kts 17°
2026-05-06 22:47 59.60511 -1.56122 1502 ft 161 kts 17°
2026-05-06 22:47 59.61558 -1.55368 1495 ft 156 kts 17°
2026-05-06 22:48 59.62561 -1.54478 1491 ft 154 kts 27°
2026-05-06 22:48 59.63484 -1.53383 1486 ft 151 kts 27°
2026-05-06 22:48 59.64428 -1.52381 1494 ft 150 kts 24°
2026-05-06 22:48 59.65378 -1.51456 1499 ft 151 kts 22°
2026-05-06 22:49 59.66333 -1.50533 1496 ft 151 kts 23°
2026-05-06 22:49 59.67298 -1.49601 1493 ft 153 kts 23°
2026-05-06 22:49 59.68264 -1.48670 1492 ft 152 kts 23°
2026-05-06 22:49 59.69221 -1.47746 1495 ft 150 kts 23°
2026-05-06 22:50 59.70172 -1.46829 1486 ft 150 kts 23°
2026-05-06 22:50 59.70904 -1.46123 1475 ft 149 kts 22°
2026-05-06 22:50 59.71495 -1.45552 1516 ft 147 kts 23°
2026-05-06 22:50 59.72459 -1.44621 1502 ft 150 kts 22°
2026-05-06 22:51 59.73105 -1.43997 1497 ft 150 kts 22°
2026-05-06 22:51 59.73888 -1.43240 1507 ft 150 kts 22°
2026-05-06 22:51 59.74447 -1.42699 1495 ft 151 kts 22°
2026-05-06 22:51 59.74807 -1.42349 1495 ft 150 kts 22°
2026-05-06 22:52 59.75335 -1.41836 1492 ft 150 kts 23°
2026-05-06 22:52 59.76196 -1.40783 1491 ft 152 kts 31°
2026-05-06 22:52 59.76723 -1.40080 1499 ft 152 kts 31°
2026-05-06 22:52 59.76899 -1.39846 1498 ft 151 kts 31°
2026-05-06 22:53 59.77407 -1.39169 1508 ft 151 kts 31°
2026-05-06 22:53 59.78058 -1.38316 1486 ft 152 kts 30°
2026-05-06 22:53 59.78971 -1.37125 1487 ft 152 kts 30°
2026-05-06 22:53 59.79854 -1.36062 1482 ft 151 kts 27°
2026-05-06 22:54 59.80785 -1.34958 1492 ft 150 kts 28°
2026-05-06 22:54 59.81684 -1.33869 1462 ft 149 kts 28°
2026-05-06 22:54 59.81847 -1.33666 1441 ft 151 kts 29°
2026-05-06 22:54 59.82689 -1.32582 1345 ft 152 kts 30°
2026-05-06 22:55 59.83588 -1.31375 1204 ft 153 kts 34°
2026-05-06 22:55 59.84443 -1.30029 1074 ft 153 kts 40°
2026-05-06 22:55 59.85195 -1.28646 922 ft 134 kts 38°
2026-05-06 22:55 59.85935 -1.27830 622 ft 112 kts
2026-05-06 22:56 59.86425 -1.27789 424 ft 108 kts 346°
2026-05-06 22:56 59.86545 -1.27835 380 ft 107 kts 340°
2026-05-06 22:56 59.86659 -1.27906 327 ft 103 kts 332°
2026-05-06 22:56 59.86815 -1.28068 234 ft 97 kts 323°
2026-05-06 22:57 59.86877 -1.28143 207 ft 95 kts 321°
2026-05-06 22:57 59.87015 -1.28311 141 ft 90 kts 325°
2026-05-06 22:57 59.87162 -1.28522 113 ft 90 kts 322°
2026-05-06 22:57 59.87633 -1.29216 160 ft 81 kts 323°
2026-05-06 22:58 59.87994 -1.29674 192 ft 89 kts 326°
2026-05-06 22:58 59.88424 -1.30180 268 ft 90 kts 328°
2026-05-06 22:58 59.88552 -1.30340 282 ft 90 kts 321°
2026-05-06 22:58 59.88661 -1.30571 265 ft 92 kts 301°
2026-05-06 22:59 59.88634 -1.31783 354 ft 89 kts 254°
2026-05-06 22:59 59.88542 -1.32326 422 ft 87 kts 250°
2026-05-06 22:59 59.88256 -1.33271 476 ft 102 kts 227°
2026-05-06 22:59 59.87571 -1.33869 525 ft 115 kts 188°
2026-05-06 23:00 59.86752 -1.33856 678 ft 113 kts 180°
2026-05-06 23:00 59.85940 -1.33714 704 ft 121 kts 171°
2026-05-06 23:00 59.85586 -1.33435 714 ft 125 kts 154°
2026-05-06 23:00 59.85121 -1.32512 860 ft 121 kts 125°
2026-05-06 23:01 59.84976 -1.30682 818 ft 135 kts 83°
2026-05-06 23:01 59.85444 -1.28913 621 ft 147 kts 43°
2026-05-06 23:01 59.86031 -1.28196 540 ft 143 kts 12°
2026-05-06 23:01 59.86789 -1.28132 358 ft 121 kts 343°
2026-05-06 23:02 59.87240 -1.28635 84 ft 102 kts 320°
2026-05-06 23:02 59.87451 -1.28959 72 ft 83 kts 320°
2026-05-06 23:02 59.87758 -1.29409 43 ft 34 kts 322°
2026-05-06 23:02 59.87846 -1.29544 40 ft 20 kts 329°
2026-05-06 23:03 59.87911 -1.29453 40 ft 10 kts 88°
2026-05-06 23:03 59.87885 -1.29377 40 ft 5 kts 142°
2026-05-06 23:03 59.87867 -1.29351 40 ft 2 kts 144°
2026-05-06 23:03 59.87863 -1.29345 40 ft 1 kts 144°
2026-05-06 23:04 59.87825 -1.29291 40 ft 23 kts 145°
2026-05-06 23:04 59.87694 -1.29090 40 ft 22 kts 140°
2026-05-06 23:04 59.87620 -1.28963 40 ft 17 kts 96°
2026-05-06 23:04 59.87653 -1.28847 40 ft 12 kts 14°
2026-05-06 23:05 59.87668 -1.28849 40 ft 3 kts 322°
2026-05-06 23:05 59.87670 -1.28853 40 ft 0 kts 312°
2026-05-06 23:13 59.87671 -1.28853 40 ft 0 kts 329°
2026-05-06 23:14 59.87677 -1.28844 40 ft 5 kts 64°
2026-05-06 23:14 59.87651 -1.28813 40 ft 5 kts 199°
2026-05-06 23:14 59.87616 -1.28893 40 ft 10 kts 232°
2026-05-06 23:14 59.87603 -1.28983 40 ft 12 kts 262°
2026-05-06 23:15 59.87599 -1.29029 40 ft 13 kts 259°
2026-05-06 23:15 59.87628 -1.29230 42 ft 24 kts 322°
2026-05-06 23:15 59.87824 -1.29506 42 ft 69 kts 327°
2026-05-06 23:15 59.87979 -1.29704 75 ft 77 kts 326°
2026-05-06 23:16 59.88348 -1.30113 130 ft 97 kts 338°
2026-05-06 23:16 59.88785 -1.30307 265 ft 110 kts 352°
2026-05-06 23:16 59.89353 -1.30048 332 ft 126 kts 28°
2026-05-06 23:16 59.89579 -1.29690 415 ft 128 kts 43°
2026-05-06 23:17 59.89702 -1.29420 461 ft 128 kts 49°
2026-05-06 23:17 59.89798 -1.29192 508 ft 128 kts 49°
2026-05-06 23:17 59.90520 -1.28106 771 ft 130 kts 15°
2026-05-06 23:17 59.91442 -1.27728 1056 ft 132 kts
2026-05-06 23:18 59.92340 -1.27311 1290 ft 138 kts
2026-05-06 23:18 59.93000 -1.26971 1437 ft 140 kts 11°
2026-05-06 23:18 59.93373 -1.26782 1481 ft 144 kts
2026-05-06 23:18 59.94416 -1.26276 1502 ft 157 kts
2026-05-06 23:19 59.95510 -1.25743 1481 ft 161 kts 10°
2026-05-06 23:19 59.96291 -1.25354 1476 ft 162 kts
2026-05-06 23:19 59.97419 -1.24781 1478 ft 164 kts
2026-05-06 23:19 59.97876 -1.24551 1489 ft 164 kts 11°
2026-05-06 23:20 59.98844 -1.24069 1486 ft 166 kts 10°
2026-05-06 23:20 59.99610 -1.23686 1476 ft 168 kts 11°
2026-05-06 23:20 60.00740 -1.23121 1476 ft 167 kts 10°
2026-05-06 23:20 60.01854 -1.22573 1473 ft 165 kts 10°
2026-05-06 23:21 60.02947 -1.22045 1473 ft 166 kts 10°
2026-05-06 23:21 60.03719 -1.21650 1479 ft 166 kts 11°
2026-05-06 23:21 60.04087 -1.21460 1475 ft 165 kts 11°
2026-05-06 23:22 60.04875 -1.21057 1478 ft 165 kts 11°
2026-05-06 23:22 60.05343 -1.20824 1488 ft 166 kts 11°
2026-05-06 23:22 60.05872 -1.20561 1474 ft 166 kts 11°
2026-05-06 23:22 60.06201 -1.20397 1472 ft 167 kts 10°
2026-05-06 23:23 60.06668 -1.20163 1475 ft 167 kts 10°
2026-05-06 23:23 60.07457 -1.19767 1473 ft 166 kts 10°
2026-05-06 23:23 60.07960 -1.19515 1477 ft 166 kts 10°
2026-05-06 23:23 60.08356 -1.19318 1477 ft 166 kts 10°
2026-05-06 23:24 60.08771 -1.19112 1476 ft 166 kts 11°
2026-05-06 23:24 60.09256 -1.18870 1473 ft 166 kts 10°
2026-05-06 23:24 60.09878 -1.18558 1474 ft 166 kts 11°
2026-05-06 23:24 60.10112 -1.18440 1474 ft 166 kts 11°
2026-05-06 23:25 60.11065 -1.17963 1469 ft 166 kts 11°
2026-05-06 23:25 60.11853 -1.17568 1472 ft 166 kts 11°
2026-05-06 23:25 60.12297 -1.17344 1470 ft 166 kts 11°
2026-05-06 23:25 60.12976 -1.17002 1471 ft 164 kts 10°
2026-05-06 23:26 60.14004 -1.16499 1476 ft 164 kts 10°
2026-05-06 23:26 60.14369 -1.16314 1485 ft 164 kts 11°
2026-05-06 23:26 60.14963 -1.16010 1479 ft 165 kts 11°
2026-05-06 23:26 60.15230 -1.15873 1482 ft 166 kts 11°
2026-05-06 23:27 60.16400 -1.15275 1472 ft 167 kts
2026-05-06 23:27 60.17548 -1.14699 1479 ft 165 kts 10°
2026-05-06 23:27 60.17866 -1.14543 1471 ft 166 kts 10°
2026-05-06 23:28 60.17996 -1.14479 1469 ft 166 kts
2026-05-06 23:31 60.18800 -1.14082 1457 ft 166 kts 11°
2026-05-06 23:31 60.19890 -1.13522 1454 ft 165 kts 10°
2026-05-06 23:31 60.20337 -1.13292 1462 ft 164 kts 10°
2026-05-06 23:32 60.20755 -1.13080 1460 ft 164 kts 10°
2026-05-06 23:32 60.20974 -1.12970 1461 ft 164 kts